Terminal Aerodrome Forecast
Issued by NWS

Current Version | Previous Version | Graphics & Text | Print | Product List | Glossary On
Versions: 1 2 3 4 5 6 7 8 9 10 11 12 13 14 15 16 17 18 19 20 21 22 23 24 25 26 27 28 29 30 31
000
FTUS41 KILN 260200 AAA
TAFLUK
TAF AMD
KLUK 260222Z 2602/2624 17007KT P6SM SCT040 BKN060
     FM261000 16004KT 5SM BR BKN035
     FM261300 20009KT P6SM SCT035 BKN200
     FM261800 21012G20KT P6SM VCTS BKN040CB BKN110=

USA.gov is the U.S. government's official web portal to all federal, state and local government web resources and services.